createdAt,value
2023-01-04T00:00:17.920Z,29.648000
2023-01-04T00:05:21.053Z,29.480000
2023-01-04T00:10:25.130Z,29.480000
2023-01-04T00:15:29.351Z,29.480000
2023-01-04T00:20:32.399Z,29.480000
2023-01-04T00:25:17.846Z,29.480000
2023-01-04T00:30:20.949Z,29.636000
2023-01-04T00:35:44.588Z,29.750000
2023-01-04T00:40:26.345Z,30.008000
2023-01-04T00:45:29.723Z,29.960000
2023-01-04T00:50:32.885Z,30.020000
2023-01-04T00:55:34.340Z,30.020000
2023-01-04T01:00:17.897Z,30.020000
2023-01-04T01:05:20.680Z,30.020000
2023-01-04T01:10:22.768Z,30.097143
2023-01-04T01:15:25.852Z,30.200000
2023-01-04T01:20:28.654Z,30.248000
2023-01-04T01:25:31.601Z,30.380000
2023-01-04T01:30:33.677Z,30.224000
2023-01-04T01:35:35.976Z,30.200000
2023-01-04T01:40:18.368Z,30.200000
2023-01-04T01:45:21.547Z,30.200000
2023-01-04T01:50:23.874Z,30.200000
2023-01-04T01:55:26.593Z,30.044000
2023-01-04T02:00:31.100Z,30.020000
2023-01-04T02:05:35.549Z,29.936000
2023-01-04T02:10:18.584Z,29.840000
2023-01-04T02:15:22.374Z,29.840000
2023-01-04T02:20:27.041Z,29.840000
2023-01-04T02:25:31.246Z,29.840000
2023-01-04T02:30:36.627Z,29.840000
2023-01-04T02:35:18.043Z,29.828000
2023-01-04T02:40:21.007Z,29.660000
2023-01-04T02:45:24.480Z,29.480000
2023-01-04T02:50:27.675Z,29.228000
2023-01-04T02:55:31.153Z,29.120000
2023-01-04T03:00:33.509Z,29.036000
2023-01-04T03:05:16.721Z,28.940000
2023-01-04T03:10:32.392Z,29.012000
2023-01-04T03:15:24.264Z,29.120000
2023-01-04T03:20:28.228Z,29.120000
2023-01-04T03:25:30.837Z,29.120000
2023-01-04T03:30:34.581Z,29.216000
2023-01-04T03:35:18.652Z,29.300000
2023-01-04T03:40:21.106Z,29.300000
2023-01-04T03:45:24.513Z,29.300000
2023-01-04T03:50:28.312Z,29.300000
2023-01-04T03:55:32.568Z,29.300000
2023-01-04T04:00:18.083Z,29.408000
2023-01-04T04:05:19.960Z,29.480000
2023-01-04T04:10:23.586Z,29.480000
2023-01-04T04:15:26.817Z,29.480000
2023-01-04T04:20:29.861Z,29.480000
2023-01-04T04:25:33.958Z,29.480000
2023-01-04T04:30:16.015Z,29.480000
2023-01-04T04:35:19.847Z,29.612000
2023-01-04T04:40:22.360Z,29.660000
2023-01-04T04:45:25.745Z,29.660000
2023-01-04T04:50:30.325Z,29.588000
2023-01-04T04:55:33.313Z,29.660000
2023-01-04T05:00:16.671Z,29.660000
2023-01-04T05:05:18.953Z,29.660000
2023-01-04T05:10:22.629Z,29.762857
2023-01-04T05:15:26.314Z,29.840000
2023-01-04T05:20:31.396Z,29.732000
2023-01-04T05:25:34.138Z,29.660000
2023-01-04T05:30:17.506Z,29.660000
2023-01-04T05:35:21.981Z,29.816000
2023-01-04T05:40:24.752Z,29.840000
2023-01-04T05:45:27.308Z,29.840000
2023-01-04T05:50:30.792Z,29.840000
2023-01-04T05:55:34.168Z,29.840000
2023-01-04T06:00:17.494Z,29.840000
2023-01-04T06:05:20.567Z,29.840000
2023-01-04T06:10:23.834Z,29.840000
2023-01-04T06:15:26.915Z,29.840000
2023-01-04T06:20:31.408Z,29.840000
2023-01-04T06:25:34.656Z,29.840000
2023-01-04T06:30:18.325Z,29.672000
2023-01-04T06:35:21.100Z,29.660000
2023-01-04T06:40:24.007Z,29.660000
2023-01-04T06:45:27.240Z,29.660000
2023-01-04T06:50:30.335Z,29.648000
2023-01-04T06:55:33.481Z,29.480000
2023-01-04T07:00:16.576Z,29.396000
2023-01-04T07:05:20.005Z,29.504000
2023-01-04T07:10:23.978Z,29.492857
2023-01-04T07:15:39.065Z,29.264000
2023-01-04T07:20:31.468Z,29.108000
2023-01-04T07:25:34.571Z,29.012000
2023-01-04T07:30:16.917Z,28.964000
2023-01-04T07:35:19.597Z,28.940000
2023-01-04T07:40:23.314Z,29.042857
2023-01-04T07:45:26.735Z,29.120000
2023-01-04T07:50:29.661Z,29.024000
2023-01-04T07:55:33.152Z,28.940000
2023-01-04T08:00:36.393Z,28.880000
2023-01-04T08:05:19.156Z,28.856000
2023-01-04T08:10:22.594Z,28.515714
2023-01-04T08:15:25.643Z,28.580000
2023-01-04T08:20:28.379Z,28.580000
2023-01-04T08:25:31.265Z,28.676000
2023-01-04T08:30:35.359Z,28.760000
2023-01-04T08:35:19.361Z,28.748000
2023-01-04T08:40:20.881Z,28.448000
2023-01-04T08:45:25.000Z,28.181429
2023-01-04T08:50:28.431Z,27.896000
2023-01-04T08:55:30.948Z,27.872000
2023-01-04T09:00:34.164Z,28.040000
2023-01-04T09:05:22.327Z,27.932000
2023-01-04T09:10:21.166Z,27.680000
2023-01-04T09:15:23.209Z,27.757143
2023-01-04T09:20:27.168Z,28.040000
2023-01-04T09:25:29.751Z,28.040000
2023-01-04T09:30:33.776Z,28.040000
2023-01-04T09:35:17.523Z,28.040000
2023-01-04T09:40:20.934Z,28.040000
2023-01-04T09:45:25.823Z,28.040000
2023-01-04T09:50:28.106Z,28.088000
2023-01-04T09:55:37.127Z,28.136000
2023-01-04T10:00:37.416Z,27.896000
2023-01-04T10:05:17.766Z,27.788000
2023-01-04T10:10:21.000Z,28.064000
2023-01-04T10:15:24.435Z,28.040000
2023-01-04T10:21:39.546Z,27.788000
2023-01-04T10:25:31.451Z,27.344000
2023-01-04T10:30:35.750Z,27.392000
2023-01-04T10:35:17.802Z,27.188000
2023-01-04T10:40:21.536Z,27.320000
2023-01-04T10:45:24.088Z,27.178571
2023-01-04T10:50:28.159Z,26.816000
2023-01-04T10:55:31.142Z,26.552000
2023-01-04T11:00:34.919Z,26.660000
2023-01-04T11:05:19.845Z,26.816000
2023-01-04T11:10:22.663Z,26.912000
2023-01-04T11:15:23.865Z,26.960000
2023-01-04T11:20:30.554Z,27.068000
2023-01-04T11:25:35.515Z,27.296000
2023-01-04T11:30:35.831Z,27.320000
2023-01-04T11:35:16.894Z,27.392000
2023-01-04T11:40:19.800Z,27.068000
2023-01-04T11:45:23.134Z,27.140000
2023-01-04T11:50:26.902Z,27.140000
2023-01-04T11:55:29.609Z,27.140000
2023-01-04T12:00:32.789Z,27.308000
2023-01-04T12:05:16.194Z,27.488000
2023-01-04T12:10:19.155Z,27.608000
2023-01-04T12:15:23.314Z,27.757143
2023-01-04T12:20:27.717Z,27.920000
2023-01-04T12:25:29.946Z,28.040000
2023-01-04T12:30:33.084Z,28.148000
2023-01-04T12:35:16.556Z,28.220000
2023-01-04T12:40:20.510Z,28.328000
2023-01-04T12:45:23.790Z,28.220000
2023-01-04T12:50:27.089Z,28.220000
2023-01-04T12:55:30.177Z,28.220000
2023-01-04T13:00:35.398Z,28.220000
2023-01-04T13:05:56.672Z,28.220000
2023-01-04T13:10:21.433Z,28.220000
2023-01-04T13:15:24.690Z,28.271429
2023-01-04T13:20:28.337Z,28.400000
2023-01-04T13:25:31.148Z,28.400000
2023-01-04T13:30:35.756Z,28.400000
2023-01-04T13:35:17.752Z,28.280000
2023-01-04T13:40:22.635Z,28.400000
2023-01-04T13:45:24.847Z,28.554286
2023-01-04T13:50:28.695Z,28.580000
2023-01-04T13:55:32.173Z,28.580000
2023-01-04T14:00:42.223Z,28.748000
2023-01-04T14:05:19.960Z,28.832000
2023-01-04T14:10:24.817Z,29.030000
2023-01-04T14:15:28.014Z,28.940000
2023-01-04T14:20:32.043Z,28.940000
2023-01-04T14:25:36.592Z,28.988000
2023-01-04T14:30:19.619Z,29.120000
2023-01-04T14:35:23.161Z,29.120000
2023-01-04T14:40:26.722Z,29.120000
2023-01-04T14:45:29.030Z,29.120000
2023-01-04T14:50:33.053Z,29.168000
2023-01-04T14:55:36.117Z,29.576000
2023-01-04T15:00:20.153Z,29.852000
2023-01-04T15:05:22.875Z,29.930000
2023-01-04T15:10:27.797Z,29.252000
2023-01-04T15:15:29.563Z,28.940000
2023-01-04T15:20:31.583Z,28.916000
2023-01-04T15:25:37.105Z,28.856000
2023-01-04T15:30:18.271Z,29.108000
2023-01-04T15:35:21.487Z,29.360000
2023-01-04T15:40:25.417Z,29.544286
2023-01-04T15:45:28.847Z,29.768000
2023-01-04T15:50:32.796Z,30.056000
2023-01-04T15:55:36.674Z,30.344000
2023-01-04T16:00:18.760Z,30.584000
2023-01-04T16:05:23.415Z,30.740000
2023-01-04T16:10:24.865Z,30.778571
2023-01-04T16:15:28.245Z,30.944000
2023-01-04T16:20:29.426Z,31.196000
2023-01-04T16:25:33.188Z,31.232000
2023-01-04T16:30:16.139Z,31.100000
2023-01-04T16:35:20.673Z,31.340000
2023-01-04T16:40:23.694Z,31.434286
2023-01-04T16:45:25.700Z,31.484000
2023-01-04T16:50:31.162Z,31.688000
2023-01-04T16:55:33.916Z,32.000000
2023-01-04T17:00:16.941Z,32.060000
2023-01-04T17:05:21.216Z,32.096000
2023-01-04T17:10:27.637Z,32.180000
2023-01-04T17:15:44.034Z,32.276000
2023-01-04T17:20:30.866Z,32.360000
2023-01-04T17:25:36.033Z,32.756000
2023-01-04T17:30:17.923Z,32.984000
2023-01-04T17:35:21.046Z,33.212000
2023-01-04T17:40:23.624Z,33.401429
2023-01-04T17:45:27.103Z,33.332000
2023-01-04T17:50:29.583Z,33.680000
2023-01-04T17:55:36.546Z,33.644000
2023-01-04T18:00:16.150Z,33.428000
2023-01-04T18:05:19.020Z,33.620000
2023-01-04T18:10:40.789Z,33.896000
2023-01-04T18:15:24.602Z,34.237143
2023-01-04T18:20:28.484Z,34.520000
2023-01-04T18:25:32.159Z,35.312000
2023-01-04T18:30:37.989Z,35.120000
2023-01-04T18:35:19.675Z,35.564000
2023-01-04T18:40:24.083Z,36.165714
2023-01-04T18:45:26.610Z,36.500000
2023-01-04T18:50:29.365Z,36.812000
2023-01-04T18:55:33.601Z,36.740000
2023-01-04T19:00:17.280Z,36.644000
2023-01-04T19:05:20.332Z,37.016000
2023-01-04T19:10:23.705Z,37.322857
2023-01-04T19:15:27.065Z,37.280000
2023-01-04T19:20:30.073Z,36.812000
2023-01-04T19:25:33.179Z,37.208000
2023-01-04T19:30:16.286Z,37.256000
2023-01-04T19:35:19.172Z,37.424000
2023-01-04T19:40:21.855Z,37.438571
2023-01-04T19:45:24.517Z,37.220000
2023-01-04T19:50:26.961Z,37.400000
2023-01-04T19:55:29.744Z,37.772000
2023-01-04T20:00:33.129Z,37.520000
2023-01-04T20:05:16.888Z,37.820000
2023-01-04T20:10:19.635Z,37.880000
2023-01-04T20:15:22.503Z,37.695714
2023-01-04T20:20:26.055Z,37.736000
2023-01-04T20:25:30.224Z,37.856000
2023-01-04T20:30:33.434Z,37.556000
2023-01-04T20:35:36.760Z,37.868000
2023-01-04T20:40:18.328Z,37.940000
2023-01-04T20:45:22.070Z,37.952000
2023-01-04T20:50:24.274Z,38.004286
2023-01-04T20:55:28.625Z,38.816000
2023-01-04T21:00:32.445Z,38.576000
2023-01-04T21:05:34.859Z,38.360000
2023-01-04T21:10:16.947Z,38.060000
2023-01-04T21:15:20.162Z,37.580000
2023-01-04T21:20:23.457Z,37.490000
2023-01-04T21:25:26.665Z,37.844000
2023-01-04T21:30:29.315Z,37.844000
2023-01-04T21:35:31.873Z,37.640000
2023-01-04T21:40:35.205Z,37.916000
2023-01-04T21:45:18.714Z,38.612000
2023-01-04T21:50:20.884Z,39.080000
2023-01-04T21:55:29.468Z,38.685714
2023-01-04T22:00:27.579Z,38.252000
2023-01-04T22:05:31.899Z,38.348000
2023-01-04T22:10:34.277Z,36.956000
2023-01-04T22:15:17.539Z,35.504000
2023-01-04T22:20:21.268Z,35.324000
2023-01-04T22:25:24.108Z,34.995714
2023-01-04T22:30:27.666Z,35.060000
2023-01-04T22:35:31.776Z,35.072000
2023-01-04T22:40:35.464Z,34.940000
2023-01-04T22:45:18.685Z,34.892000
2023-01-04T22:50:22.889Z,35.548571
2023-01-04T22:55:35.116Z,35.108000
2023-01-04T23:00:29.536Z,35.024000
2023-01-04T23:05:32.734Z,34.496000
2023-01-04T23:10:16.155Z,33.872000
2023-01-04T23:15:19.388Z,34.136000
2023-01-04T23:20:23.112Z,34.404286
2023-01-04T23:25:26.672Z,34.448000
2023-01-04T23:30:31.753Z,33.992000
2023-01-04T23:35:34.336Z,33.788000
2023-01-04T23:40:17.835Z,33.224000
2023-01-04T23:45:20.852Z,32.492000
2023-01-04T23:50:24.194Z,31.948571
2023-01-04T23:55:27.057Z,31.712000
